Time;durP1;ratioP1;P1;durP2;ratioP2;P2;SDS_P1;SDS_P2;PMS_P1;PMS_P2;Temp;Humidity;BMP_temperature;BMP_pressure;BME280_temperature;BME280_humidity;BME280_pressure;Samples;Min_cycle;Max_cycle;Signal;HPM_P1;HPM_P2
2023/08/25 00:01:13;;;;;;;2.20;0.70;;;;;;;27.35;49.18;100911.34;5036011;28;20460;-77
2023/08/25 00:03:38;;;;;;;2.00;0.70;;;;;;;27.36;49.39;100912.13;5035256;28;20739;-78
2023/08/25 00:06:05;;;;;;;2.35;0.75;;;;;;;27.39;49.15;100911.59;5030892;28;20459;-78
2023/08/25 00:08:30;;;;;;;2.72;0.75;;;;;;;27.42;48.88;100897.41;5024741;28;20903;-78
2023/08/25 00:10:56;;;;;;;2.57;0.87;;;;;;;27.48;48.62;100888.13;5030236;28;20392;-78
2023/08/25 00:13:21;;;;;;;2.43;0.70;;;;;;;27.52;48.67;100899.28;5027739;28;20498;-78
2023/08/25 00:15:49;;;;;;;2.07;0.63;;;;;;;27.53;48.60;100898.19;5013889;28;20411;-78
2023/08/25 00:18:14;;;;;;;2.55;0.80;;;;;;;27.60;48.46;100898.69;5029820;28;20420;-78
2023/08/25 00:20:41;;;;;;;2.20;0.63;;;;;;;27.53;48.71;100892.72;5033299;28;20493;-78
2023/08/25 00:23:07;;;;;;;1.90;0.60;;;;;;;27.48;48.81;100896.31;5033455;28;20383;-78
2023/08/25 00:25:32;;;;;;;1.92;0.57;;;;;;;27.50;48.50;100901.47;5047042;28;20497;-78
2023/08/25 00:27:58;;;;;;;1.67;0.70;;;;;;;27.37;48.96;100898.25;5052194;28;20438;-77
2023/08/25 00:30:25;;;;;;;2.50;0.80;;;;;;;27.35;49.26;100905.06;5047598;28;20489;-79
2023/08/25 00:32:50;;;;;;;2.58;0.70;;;;;;;27.32;49.26;100908.34;5038624;28;20401;-79
2023/08/25 00:35:15;;;;;;;2.33;0.90;;;;;;;27.21;49.28;100912.97;5037920;28;20382;-78
2023/08/25 00:37:42;;;;;;;1.97;0.53;;;;;;;27.16;49.93;100913.81;5037678;28;20469;-78
2023/08/25 00:40:08;;;;;;;1.70;0.65;;;;;;;27.12;49.94;100912.72;5038387;28;20434;-79
2023/08/25 00:42:33;;;;;;;2.50;0.80;;;;;;;27.13;49.80;100905.38;5038506;28;20387;-79
2023/08/25 00:45:01;;;;;;;1.67;0.50;;;;;;;27.11;49.84;100915.72;5037407;28;20453;-79
2023/08/25 00:47:27;;;;;;;1.27;0.47;;;;;;;27.01;49.95;100911.94;5037889;28;20414;-78
2023/08/25 00:49:54;;;;;;;1.50;0.40;;;;;;;26.91;50.19;100905.69;5037939;28;20822;-78
2023/08/25 00:52:21;;;;;;;1.85;0.60;;;;;;;26.91;50.23;100913.88;5038036;28;20397;-79
2023/08/25 00:54:51;;;;;;;1.63;0.55;;;;;;;26.95;50.17;100909.50;5020111;28;20391;-78
2023/08/25 00:57:17;;;;;;;2.05;0.70;;;;;;;26.82;50.70;100910.88;5036200;28;20378;-78
2023/08/25 00:59:44;;;;;;;2.40;0.70;;;;;;;26.83;50.70;100910.63;5035934;28;20415;-77
2023/08/25 01:02:11;;;;;;;1.17;0.50;;;;;;;26.85;50.36;100905.72;5035564;28;20386;-78
2023/08/25 01:04:37;;;;;;;2.40;0.90;;;;;;;26.92;50.48;100907.31;5040150;28;20436;-78
2023/08/25 01:07:02;;;;;;;2.13;0.63;;;;;;;26.96;50.20;100903.78;5056417;28;20454;-79
2023/08/25 01:09:28;;;;;;;1.97;0.60;;;;;;;26.89;50.07;100898.63;5037994;28;20404;-79
2023/08/25 01:11:56;;;;;;;2.33;0.60;;;;;;;26.86;50.36;100903.78;5055802;28;20381;-77
2023/08/25 01:14:42;;;;;;;2.28;0.70;;;;;;;26.61;51.19;100902.72;5054274;28;20381;-77
2023/08/25 01:17:32;;;;;;;1.58;0.60;;;;;;;26.63;51.38;100894.31;5054055;28;20838;-78
2023/08/25 01:20:08;;;;;;;1.75;0.60;;;;;;;26.35;52.12;100895.66;5054293;28;20411;-78
2023/08/25 01:23:01;;;;;;;2.33;0.70;;;;;;;26.48;51.69;100900.53;5053587;28;20864;-78
2023/08/25 01:25:30;;;;;;;2.40;0.75;;;;;;;26.63;51.21;100897.03;5047598;28;20380;-77
2023/08/25 01:28:02;;;;;;;2.25;0.70;;;;;;;26.78;50.70;100894.28;5054704;28;20400;-77
2023/08/25 01:30:32;;;;;;;2.53;0.80;;;;;;;26.80;50.71;100907.63;5053517;28;20408;-76
2023/08/25 01:32:58;;;;;;;2.22;0.60;;;;;;;26.77;50.53;100902.72;5052954;28;20481;-77
2023/08/25 01:35:43;;;;;;;2.25;0.63;;;;;;;26.91;49.96;100900.25;5061609;28;20470;-77
2023/08/25 01:38:17;;;;;;;2.03;0.80;;;;;;;27.01;49.82;100900.22;5074379;28;20450;-77
2023/08/25 01:41:10;;;;;;;1.67;0.70;;;;;;;26.94;49.78;100900.53;5073836;28;20383;-78
2023/08/25 01:43:38;;;;;;;1.50;0.50;;;;;;;26.78;50.23;100894.28;5073981;28;20497;-78
2023/08/25 01:46:04;;;;;;;2.78;0.80;;;;;;;26.66;50.69;100907.34;5073185;28;20383;-78
2023/08/25 01:48:31;;;;;;;3.65;0.63;;;;;;;26.57;51.03;100908.97;5056602;28;20390;-78
2023/08/25 01:50:57;;;;;;;2.40;0.80;;;;;;;26.47;51.19;100909.78;5075095;28;20848;-78
2023/08/25 01:53:23;;;;;;;3.10;0.80;;;;;;;26.38;51.48;100909.53;5074853;28;20859;-78
2023/08/25 01:55:49;;;;;;;2.23;1.00;;;;;;;26.33;51.29;100909.50;5075879;28;20394;-78
2023/08/25 01:58:14;;;;;;;3.10;0.90;;;;;;;26.26;51.50;100909.78;5076396;28;20433;-79
2023/08/25 02:00:40;;;;;;;1.58;0.52;;;;;;;26.19;51.94;100902.97;5076653;28;20727;-79
2023/08/25 02:03:06;;;;;;;1.40;0.57;;;;;;;26.24;51.74;100905.69;5074389;28;20382;-77
2023/08/25 02:05:32;;;;;;;2.08;0.75;;;;;;;26.14;51.73;100906.50;5072163;28;20407;-77
2023/08/25 02:07:57;;;;;;;1.67;0.63;;;;;;;26.00;52.08;100902.66;5072302;28;20886;-77
2023/08/25 02:10:23;;;;;;;2.10;0.73;;;;;;;26.02;52.28;100900.50;5072378;28;20914;-77
2023/08/25 02:12:48;;;;;;;1.77;0.57;;;;;;;26.11;52.04;100907.84;5072346;28;20394;-77
2023/08/25 02:15:14;;;;;;;2.43;0.70;;;;;;;26.17;51.78;100905.97;5072238;28;20446;-77
2023/08/25 02:17:40;;;;;;;2.63;0.90;;;;;;;26.09;51.88;100901.03;5072264;28;20393;-77
2023/08/25 02:20:07;;;;;;;2.10;0.63;;;;;;;26.04;51.79;100904.59;5054117;28;20728;-77
2023/08/25 02:22:33;;;;;;;1.85;0.50;;;;;;;25.99;52.06;100901.03;5072401;28;20478;-77
2023/08/25 02:24:58;;;;;;;2.70;0.75;;;;;;;26.04;52.06;100906.50;5072301;28;20734;-77
2023/08/25 02:27:24;;;;;;;2.43;0.70;;;;;;;26.05;51.80;100913.53;5070200;28;20792;-77
2023/08/25 02:29:49;;;;;;;1.87;0.70;;;;;;;26.01;51.86;100913.25;5054577;28;20395;-77
2023/08/25 02:32:14;;;;;;;2.07;0.70;;;;;;;25.87;52.48;100920.25;5072128;28;20487;-77
2023/08/25 02:34:40;;;;;;;3.40;0.90;;;;;;;25.71;52.86;100916.69;5072377;28;20378;-77
2023/08/25 02:37:05;;;;;;;2.90;0.68;;;;;;;25.72;52.84;100923.75;5055312;28;20390;-77
2023/08/25 02:39:31;;;;;;;2.22;0.70;;;;;;;25.67;52.69;100921.81;5072359;28;20381;-78
2023/08/25 02:41:56;;;;;;;1.60;0.50;;;;;;;25.67;52.87;100929.97;5073805;28;20862;-78
2023/08/25 02:44:22;;;;;;;2.17;0.80;;;;;;;25.60;53.17;100942.97;5072971;28;20371;-78
2023/08/25 02:46:48;;;;;;;2.00;0.70;;;;;;;25.64;52.68;100935.94;5073666;28;20458;-78
2023/08/25 02:49:13;;;;;;;1.77;0.60;;;;;;;25.60;52.86;100932.09;5073255;28;20500;-79
2023/08/25 02:51:39;;;;;;;2.28;0.88;;;;;;;25.65;52.93;100944.91;5056786;28;20481;-78
2023/08/25 02:54:04;;;;;;;2.00;0.75;;;;;;;25.57;53.20;100946.25;5073693;28;20500;-79
2023/08/25 02:56:30;;;;;;;1.97;0.83;;;;;;;25.52;53.18;100943.50;5074761;28;20381;-78
2023/08/25 02:58:55;;;;;;;1.47;0.53;;;;;;;25.54;53.07;100946.75;5074721;28;20363;-79
2023/08/25 03:01:21;;;;;;;2.00;0.60;;;;;;;25.46;53.40;100950.81;5056480;28;20448;-79
2023/08/25 03:03:47;;;;;;;3.20;1.20;;;;;;;25.45;53.36;100951.88;5054092;28;20843;-78
2023/08/25 03:06:13;;;;;;;2.67;0.70;;;;;;;25.52;53.34;100965.22;5071332;28;20403;-79
2023/08/25 03:08:39;;;;;;;1.70;0.52;;;;;;;25.48;53.39;100964.09;5071869;28;20446;-78
2023/08/25 03:11:05;;;;;;;1.50;0.60;;;;;;;25.44;53.48;100961.06;5072473;28;20410;-79
2023/08/25 03:13:30;;;;;;;1.52;0.50;;;;;;;25.53;53.27;100958.69;5071828;28;20370;-79
2023/08/25 03:15:56;;;;;;;1.40;0.50;;;;;;;25.64;52.82;100963.09;5074005;28;20403;-78
2023/08/25 03:18:22;;;;;;;1.17;0.45;;;;;;;25.65;52.76;100961.19;5056893;28;20375;-79
2023/08/25 03:20:54;;;;;;;1.33;0.43;;;;;;;25.62;52.85;100978.00;5062517;28;20396;-78
2023/08/25 03:23:20;;;;;;;1.58;0.70;;;;;;;25.40;53.46;100981.69;5040860;28;20470;-78
2023/08/25 03:25:46;;;;;;;1.63;0.73;;;;;;;25.23;54.09;100976.41;5038144;28;20392;-78
2023/08/25 03:28:11;;;;;;;1.67;0.60;;;;;;;25.30;54.24;100987.03;5034474;28;20394;-77
2023/08/25 03:30:37;;;;;;;1.83;0.70;;;;;;;25.30;54.16;100987.88;5038998;28;20421;-77
2023/08/25 03:33:04;;;;;;;1.67;0.53;;;;;;;25.23;54.11;100981.84;5036297;28;20413;-79
2023/08/25 03:35:34;;;;;;;2.63;0.97;;;;;;;25.17;54.45;100985.59;5033481;28;20399;-79
2023/08/25 03:38:00;;;;;;;2.13;0.70;;;;;;;25.03;55.02;101000.66;5034806;28;20397;-78
2023/08/25 03:40:25;;;;;;;1.67;0.60;;;;;;;24.93;55.25;100998.72;5038776;28;20404;-80
2023/08/25 03:42:51;;;;;;;1.83;0.50;;;;;;;24.85;55.32;101000.00;5037916;28;20407;-80
2023/08/25 03:45:16;;;;;;;1.63;0.68;;;;;;;24.69;56.03;101011.81;5038658;28;20389;-78
2023/08/25 03:47:42;;;;;;;1.17;0.57;;;;;;;24.50;56.71;101009.41;5036537;28;20392;-79
2023/08/25 03:50:07;;;;;;;1.30;0.60;;;;;;;24.62;56.15;101014.72;5010888;28;20409;-78
2023/08/25 03:52:33;;;;;;;1.75;0.65;;;;;;;24.63;56.18;101008.19;5057043;28;20405;-78
2023/08/25 03:54:58;;;;;;;1.43;0.60;;;;;;;24.55;56.53;101014.09;5040723;28;20381;-78
2023/08/25 03:57:24;;;;;;;2.63;0.80;;;;;;;24.73;55.69;101013.72;5060199;28;20438;-78
2023/08/25 03:59:49;;;;;;;1.42;0.50;;;;;;;24.88;55.10;101009.50;5056604;28;20387;-78
2023/08/25 04:02:15;;;;;;;1.03;0.40;;;;;;;24.92;54.95;101018.75;5031525;28;20388;-78
2023/08/25 04:04:40;;;;;;;1.30;0.50;;;;;;;24.86;55.33;101017.91;5049975;28;20422;-78
2023/08/25 04:07:07;;;;;;;2.70;0.87;;;;;;;24.83;55.15;101021.16;5049628;28;20459;-78
2023/08/25 04:09:32;;;;;;;1.42;0.50;;;;;;;24.89;55.08;101025.53;5049419;28;20439;-78
2023/08/25 04:11:58;;;;;;;1.23;0.80;;;;;;;24.90;55.06;101042.59;5049171;28;20377;-79
2023/08/25 04:14:24;;;;;;;2.10;0.70;;;;;;;24.80;55.38;101038.72;5031062;28;20443;-78
2023/08/25 04:16:49;;;;;;;1.13;0.43;;;;;;;24.80;55.58;101041.44;5048570;28;20438;-79
2023/08/25 04:19:16;;;;;;;0.83;0.40;;;;;;;24.78;55.62;101045.50;5049395;28;20375;-79
2023/08/25 04:21:43;;;;;;;1.20;0.73;;;;;;;24.73;55.78;101056.28;5049481;28;20420;-79
2023/08/25 04:24:09;;;;;;;1.98;0.60;;;;;;;24.82;55.56;101060.16;5049238;28;20376;-79
2023/08/25 04:26:34;;;;;;;2.20;0.80;;;;;;;24.49;56.55;101058.44;5052189;28;20384;-79
2023/08/25 04:29:00;;;;;;;1.45;0.68;;;;;;;24.55;56.48;101063.69;5062251;28;20404;-79
2023/08/25 04:31:25;;;;;;;1.60;0.67;;;;;;;24.49;56.59;101063.84;5058713;28;20388;-79
2023/08/25 04:33:51;;;;;;;1.50;0.60;;;;;;;24.32;57.03;101053.13;5056852;28;20408;-79
2023/08/25 04:36:16;;;;;;;0.67;0.40;;;;;;;24.40;57.01;101055.38;5062203;28;20382;-78
2023/08/25 04:38:42;;;;;;;1.53;0.60;;;;;;;24.66;56.19;101051.06;5055834;28;20746;-79
2023/08/25 04:41:07;;;;;;;1.10;0.38;;;;;;;24.78;55.92;101048.22;5056176;28;20385;-78
2023/08/25 04:43:33;;;;;;;1.43;0.57;;;;;;;24.85;55.60;101051.53;5052033;28;20486;-79
2023/08/25 04:45:58;;;;;;;1.80;0.80;;;;;;;25.00;55.14;101053.56;5042264;28;20378;-80
2023/08/25 04:48:24;;;;;;;1.70;0.70;;;;;;;24.97;55.32;101056.78;5052048;28;20374;-79
2023/08/25 04:50:49;;;;;;;1.30;0.50;;;;;;;25.20;54.80;101058.31;5053603;28;20388;-79
2023/08/25 04:53:14;;;;;;;2.20;0.70;;;;;;;25.40;54.31;101060.41;5037814;28;20884;-79
2023/08/25 04:55:40;;;;;;;0.97;0.57;;;;;;;25.48;54.08;101048.22;5034014;28;20397;-79
2023/08/25 04:58:05;;;;;;;1.53;0.70;;;;;;;25.55;53.70;101052.38;5052561;28;20387;-79
2023/08/25 05:00:31;;;;;;;1.90;0.63;;;;;;;25.65;53.65;101059.75;5053961;28;20381;-81
2023/08/25 05:02:56;;;;;;;1.53;0.70;;;;;;;25.76;53.49;101058.72;5054782;28;20784;-80
2023/08/25 05:05:22;;;;;;;1.60;0.67;;;;;;;25.94;53.14;101062.91;5054347;28;20951;-79
2023/08/25 05:07:49;;;;;;;1.13;0.50;;;;;;;26.08;52.80;101054.28;5055050;28;20729;-79
2023/08/25 05:10:14;;;;;;;1.05;0.40;;;;;;;26.28;52.56;101058.97;5036698;28;20397;-80
2023/08/25 05:12:40;;;;;;;1.30;0.60;;;;;;;26.36;52.16;101068.50;5054058;28;20439;-79
2023/08/25 05:15:06;;;;;;;1.43;0.50;;;;;;;26.32;52.16;101063.59;5046305;28;20474;-79
2023/08/25 05:17:32;;;;;;;1.15;0.60;;;;;;;26.33;52.03;101051.66;5047901;28;20384;-79
2023/08/25 05:19:57;;;;;;;1.07;0.40;;;;;;;26.55;51.57;101052.53;5054208;28;20400;-79
2023/08/25 05:22:23;;;;;;;1.57;0.50;;;;;;;26.68;51.33;101049.31;5053357;28;20373;-79
2023/08/25 05:24:48;;;;;;;1.37;0.50;;;;;;;26.72;51.35;101066.69;5035862;28;20373;-79
2023/08/25 05:27:14;;;;;;;1.30;0.50;;;;;;;26.80;51.25;101063.47;5053758;28;20446;-79
2023/08/25 05:29:39;;;;;;;1.23;0.43;;;;;;;26.96;50.93;101061.56;5052122;28;20412;-78
2023/08/25 05:32:05;;;;;;;1.27;0.50;;;;;;;27.11;50.72;101065.38;5035062;28;20412;-79
2023/08/25 05:34:31;;;;;;;0.77;0.40;;;;;;;27.16;50.29;101060.75;5054237;28;20381;-79
2023/08/25 05:36:57;;;;;;;1.45;0.50;;;;;;;27.20;50.38;101058.31;5052888;28;20422;-81
2023/08/25 05:39:23;;;;;;;0.98;0.30;;;;;;;27.38;50.14;101063.22;5052161;28;20400;-80
2023/08/25 05:41:49;;;;;;;1.50;0.50;;;;;;;27.51;49.95;101064.53;5050140;28;20850;-78
2023/08/25 05:44:14;;;;;;;0.85;0.45;;;;;;;27.66;49.90;101071.88;5045715;28;20938;-78
2023/08/25 05:46:40;;;;;;;0.53;0.30;;;;;;;27.75;49.58;101069.38;5043051;28;20452;-78
2023/08/25 05:49:06;;;;;;;1.38;0.50;;;;;;;27.90;49.46;101066.66;5033704;28;20476;-80
2023/08/25 05:51:32;;;;;;;1.30;0.50;;;;;;;27.90;49.13;101071.28;5041623;28;20381;-78
2023/08/25 05:53:57;;;;;;;1.63;0.50;;;;;;;27.94;49.26;101064.19;5036510;28;20675;-80
2023/08/25 05:56:23;;;;;;;1.27;0.60;;;;;;;27.95;49.00;101068.56;5043614;28;20427;-79
2023/08/25 05:58:48;;;;;;;2.10;0.67;;;;;;;28.02;48.97;101075.34;5044539;28;20655;-78
2023/08/25 06:01:15;;;;;;;1.45;0.52;;;;;;;28.13;48.62;101078.84;5038725;28;20398;-79
2023/08/25 06:03:40;;;;;;;0.93;0.53;;;;;;;28.22;48.46;101073.63;5045482;28;20388;-79
2023/08/25 06:06:06;;;;;;;1.27;0.40;;;;;;;28.27;48.62;101072.75;5049562;28;20410;-79
2023/08/25 06:08:32;;;;;;;0.80;0.25;;;;;;;28.29;48.48;101070.56;5054570;28;20388;-79
2023/08/25 06:10:57;;;;;;;1.65;0.70;;;;;;;28.26;48.35;101090.22;5039860;28;20412;-78
2023/08/25 06:13:23;;;;;;;0.50;0.50;;;;;;;28.32;48.29;101091.81;5034955;28;20387;-79
2023/08/25 06:15:49;;;;;;;1.20;0.50;;;;;;;28.42;47.79;101080.88;5039395;28;20376;-78
2023/08/25 06:18:15;;;;;;;0.53;0.30;;;;;;;28.59;48.06;101065.00;5054402;28;20880;-78
2023/08/25 06:20:41;;;;;;;1.00;0.40;;;;;;;28.74;47.50;101066.78;5052207;28;20472;-77
2023/08/25 06:23:07;;;;;;;1.27;0.57;;;;;;;28.86;47.62;101068.34;5052686;28;20464;-76
2023/08/25 06:25:32;;;;;;;1.30;0.60;;;;;;;28.91;47.37;101069.13;5038190;28;20788;-79
2023/08/25 06:27:59;;;;;;;1.10;0.50;;;;;;;28.92;47.02;101081.66;5053139;28;20853;-76
2023/08/25 06:30:26;;;;;;;1.27;0.50;;;;;;;28.88;47.16;101072.44;5067361;28;20410;-79
2023/08/25 06:32:52;;;;;;;1.50;0.60;;;;;;;29.09;47.11;101075.00;5072213;28;20379;-79
2023/08/25 06:35:17;;;;;;;1.52;0.50;;;;;;;29.07;46.52;101074.47;5054818;28;20482;-78
2023/08/25 06:37:43;;;;;;;1.53;0.47;;;;;;;28.97;46.98;101078.91;5073748;28;20454;-80
2023/08/25 06:40:09;;;;;;;1.10;0.50;;;;;;;29.10;46.70;101084.78;5073111;28;20443;-79
2023/08/25 06:42:34;;;;;;;1.15;0.50;;;;;;;29.09;46.71;101077.72;5054943;28;20413;-80
2023/08/25 06:45:00;;;;;;;1.40;0.60;;;;;;;29.25;46.72;101086.63;5074788;28;20434;-82
2023/08/25 06:47:30;;;;;;;1.23;0.60;;;;;;;29.33;46.50;101086.81;5073271;28;20394;-81
2023/08/25 06:49:55;;;;;;;0.60;0.40;;;;;;;29.39;46.21;101084.03;5055722;28;20414;-85
2023/08/25 06:52:22;;;;;;;1.00;0.40;;;;;;;29.51;46.10;101093.47;5073521;28;20383;-83
2023/08/25 06:54:47;;;;;;;0.93;0.50;;;;;;;29.58;45.75;101087.66;5073788;28;20860;-82
2023/08/25 06:57:13;;;;;;;1.13;0.43;;;;;;;29.52;45.51;101083.38;5073655;28;20482;-83
2023/08/25 06:59:38;;;;;;;3.67;2.07;;;;;;;29.24;46.10;101091.25;5076270;28;20378;-83
2023/08/25 07:02:04;;;;;;;1.40;0.50;;;;;;;29.42;45.96;101094.38;5066911;28;20398;-83
2023/08/25 07:04:30;;;;;;;1.40;0.50;;;;;;;29.80;45.30;101094.56;5088385;28;20457;-82
2023/08/25 07:06:55;;;;;;;1.13;0.50;;;;;;;29.95;44.95;101091.66;5080908;28;20465;-82
2023/08/25 07:09:21;;;;;;;1.37;0.57;;;;;;;29.88;45.17;101093.94;5073742;28;20408;-82
2023/08/25 07:11:46;;;;;;;0.82;0.50;;;;;;;30.01;45.00;101089.69;5073649;28;20387;-83
2023/08/25 07:14:12;;;;;;;1.60;0.60;;;;;;;29.98;44.86;101082.88;5062012;28;20476;-82
2023/08/25 07:16:38;;;;;;;1.60;0.50;;;;;;;30.26;44.68;101097.56;5027395;28;20475;-81
2023/08/25 07:19:04;;;;;;;1.43;0.57;;;;;;;30.31;44.78;101094.75;5047126;28;20457;-83
2023/08/25 07:21:30;;;;;;;1.73;0.63;;;;;;;30.52;44.25;101090.94;5038420;28;20493;-82
2023/08/25 07:23:55;;;;;;;0.77;0.38;;;;;;;30.58;44.50;101082.38;5032996;28;20414;-83
2023/08/25 07:26:22;;;;;;;1.67;0.67;;;;;;;30.74;44.07;101091.19;5031859;28;20375;-83
2023/08/25 07:28:48;;;;;;;1.20;0.47;;;;;;;30.79;44.04;101080.16;5031974;28;20808;-84
2023/08/25 07:31:13;;;;;;;1.50;0.70;;;;;;;30.52;43.26;101086.28;5032440;28;20450;-83
2023/08/25 07:33:41;;;;;;;1.23;0.50;;;;;;;30.60;43.54;101090.31;5035136;28;20882;-83
2023/08/25 07:36:07;;;;;;;1.63;0.70;;;;;;;30.63;43.45;101084.22;5033982;28;20382;-83
2023/08/25 07:38:33;;;;;;;1.45;0.63;;;;;;;30.51;43.18;101087.41;5034078;28;20374;-84
2023/08/25 07:40:58;;;;;;;1.77;0.60;;;;;;;30.62;43.23;101086.16;5033442;28;20465;-84
2023/08/25 07:43:24;;;;;;;1.43;0.50;;;;;;;30.96;43.20;101079.63;5033531;28;20375;-82
2023/08/25 07:45:50;;;;;;;1.17;0.50;;;;;;;31.16;42.72;101083.94;5032699;28;20441;-83
2023/08/25 07:48:15;;;;;;;1.57;0.60;;;;;;;31.06;42.60;101079.47;5035628;28;20878;-84
2023/08/25 07:50:41;;;;;;;1.57;0.73;;;;;;;31.25;42.54;101079.41;5034894;28;20437;-82
2023/08/25 07:53:07;;;;;;;1.17;0.52;;;;;;;31.12;42.18;101071.97;5035299;28;20505;-83
2023/08/25 07:55:34;;;;;;;1.38;0.70;;;;;;;31.36;42.02;101071.81;5033841;28;20839;-82
2023/08/25 07:58:00;;;;;;;1.50;0.50;;;;;;;31.57;41.85;101066.00;5051009;28;20378;-82
2023/08/25 08:00:27;;;;;;;1.00;0.40;;;;;;;31.73;41.39;101061.03;5035238;28;20381;-82
2023/08/25 08:02:53;;;;;;;1.23;0.50;;;;;;;31.70;40.83;101062.44;5037015;28;20378;-82
2023/08/25 08:05:19;;;;;;;1.33;0.50;;;;;;;31.47;41.04;101052.47;5051571;28;20437;-84
2023/08/25 08:07:47;;;;;;;1.33;0.43;;;;;;;31.55;41.17;101058.09;5036309;28;20394;-83
2023/08/25 08:10:13;;;;;;;1.02;0.50;;;;;;;31.79;41.20;101055.13;5033431;28;20902;-83
2023/08/25 08:12:39;;;;;;;1.03;0.50;;;;;;;31.66;40.44;101052.38;5033311;28;20384;-83
2023/08/25 08:15:06;;;;;;;1.65;0.57;;;;;;;31.57;40.89;101057.78;5051034;28;20381;-83
2023/08/25 08:17:32;;;;;;;1.57;0.60;;;;;;;31.72;40.58;101051.19;5033733;28;20796;-83
2023/08/25 08:19:58;;;;;;;1.05;0.40;;;;;;;31.99;40.75;101055.84;5034443;28;20379;-83
2023/08/25 08:22:23;;;;;;;1.10;0.47;;;;;;;32.19;40.37;101054.63;5035553;28;20381;-82
2023/08/25 08:24:50;;;;;;;1.27;0.47;;;;;;;32.27;40.51;101050.31;5036345;28;20870;-83
2023/08/25 08:27:19;;;;;;;1.20;0.50;;;;;;;32.47;39.99;101049.06;5040852;28;20482;-83
2023/08/25 08:29:46;;;;;;;1.63;0.52;;;;;;;32.44;39.73;101047.75;5037872;28;20406;-82
2023/08/25 08:32:13;;;;;;;1.38;0.50;;;;;;;32.55;40.13;101048.31;5039211;28;20378;-83
2023/08/25 08:34:38;;;;;;;1.40;0.60;;;;;;;32.64;40.23;101048.41;5038296;28;20526;-84
2023/08/25 08:37:07;;;;;;;1.13;0.53;;;;;;;32.70;39.45;101037.00;5037821;28;20402;-83
2023/08/25 08:39:33;;;;;;;0.73;0.60;;;;;;;32.31;38.74;101051.34;5036871;28;20465;-82
2023/08/25 08:42:01;;;;;;;1.67;0.80;;;;;;;32.29;39.46;101042.63;5037321;28;20393;-84
2023/08/25 08:44:28;;;;;;;1.30;0.60;;;;;;;32.53;39.08;101040.38;5037256;28;20790;-82
2023/08/25 08:46:56;;;;;;;1.10;0.40;;;;;;;32.67;38.29;101037.63;5037774;28;20385;-82
2023/08/25 08:49:23;;;;;;;2.97;0.80;;;;;;;32.91;37.70;101039.22;5033127;28;20549;-83
2023/08/25 08:51:50;;;;;;;0.83;0.53;;;;;;;32.95;37.82;101041.06;5040865;28;20397;-83
2023/08/25 08:54:19;;;;;;;1.67;0.70;;;;;;;32.65;37.63;101033.59;5038266;28;20469;-81
2023/08/25 08:56:45;;;;;;;1.50;0.95;;;;;;;32.62;37.51;101043.22;5037207;28;20421;-83
2023/08/25 08:59:11;;;;;;;1.30;0.60;;;;;;;32.70;37.46;101041.66;5038286;28;20537;-83
2023/08/25 09:01:38;;;;;;;1.60;0.50;;;;;;;32.73;37.62;101035.56;5037261;28;20719;-82
2023/08/25 09:04:08;;;;;;;1.37;0.47;;;;;;;32.99;37.63;101033.00;5039966;28;20386;-81
2023/08/25 09:06:37;;;;;;;1.10;0.40;;;;;;;33.22;37.21;101032.97;5038843;28;20406;-83
2023/08/25 09:09:05;;;;;;;1.10;0.50;;;;;;;33.34;36.86;101028.50;5038330;28;20783;-82
2023/08/25 09:11:34;;;;;;;1.10;0.80;;;;;;;33.43;37.40;101028.53;5050669;28;20430;-84
2023/08/25 09:14:04;;;;;;;0.60;0.30;;;;;;;33.56;37.28;101017.75;5050011;28;20375;-84
2023/08/25 09:16:33;;;;;;;0.82;0.50;;;;;;;33.63;37.08;101013.41;5043974;28;20382;-82
2023/08/25 09:19:03;;;;;;;3.08;0.63;;;;;;;33.68;37.02;101021.53;5036346;28;20382;-82
2023/08/25 09:21:29;;;;;;;2.20;0.85;;;;;;;33.71;36.99;101004.41;5037768;28;20386;-83
2023/08/25 09:23:58;;;;;;;0.95;0.43;;;;;;;33.82;36.83;101007.69;5035927;28;20421;-83
2023/08/25 09:26:25;;;;;;;0.95;0.50;;;;;;;33.92;36.90;101008.50;5036837;28;20875;-82
2023/08/25 09:28:53;;;;;;;1.08;0.43;;;;;;;33.97;36.78;101006.38;5035760;28;20378;-82
2023/08/25 09:31:28;;;;;;;1.00;0.40;;;;;;;34.07;36.60;101014.34;5037174;28;20394;-82
2023/08/25 09:34:02;;;;;;;1.10;0.50;;;;;;;34.25;36.57;101020.69;5037271;28;20382;-81
2023/08/25 09:36:29;;;;;;;1.40;0.50;;;;;;;34.22;36.30;101010.31;5037602;28;20382;-87
2023/08/25 09:38:55;;;;;;;0.57;0.30;;;;;;;34.26;36.31;101002.22;5037780;28;20444;-82
2023/08/25 09:41:28;;;;;;;1.00;0.60;;;;;;;34.30;35.85;100999.66;5035852;28;20382;-82
2023/08/25 09:44:01;;;;;;;0.50;0.30;;;;;;;34.28;36.20;101002.72;5036576;28;20450;-82
2023/08/25 09:46:33;;;;;;;0.70;0.40;;;;;;;34.14;35.54;101000.13;5036253;28;20378;-83
2023/08/25 09:49:10;;;;;;;1.30;0.70;;;;;;;34.24;35.66;100999.81;5035743;28;20414;-83
2023/08/25 09:51:41;;;;;;;1.77;0.70;;;;;;;34.28;35.65;100994.47;5034687;28;20374;-83
2023/08/25 09:54:17;;;;;;;0.73;0.40;;;;;;;34.21;35.52;100994.13;5036536;28;20379;-83
2023/08/25 09:56:44;;;;;;;1.00;0.60;;;;;;;34.23;35.36;100992.69;5035400;28;20392;-83
2023/08/25 09:59:11;;;;;;;0.70;0.30;;;;;;;34.25;35.56;100982.19;5040140;28;20366;-82
2023/08/25 10:01:41;;;;;;;0.85;0.43;;;;;;;34.36;35.46;100987.31;5037702;28;20439;-82
2023/08/25 10:04:07;;;;;;;0.60;0.30;;;;;;;34.37;35.63;100984.25;5038941;28;20378;-83
2023/08/25 10:06:35;;;;;;;1.10;0.63;;;;;;;34.30;35.13;100989.44;5036356;28;20425;-82
2023/08/25 10:09:02;;;;;;;0.60;0.60;;;;;;;34.15;35.25;100985.22;5037277;28;20424;-82
2023/08/25 10:11:38;;;;;;;1.00;0.45;;;;;;;34.28;35.32;100978.75;5037674;28;20828;-84
2023/08/25 10:14:07;;;;;;;0.50;0.30;;;;;;;34.38;35.24;100980.38;5052927;28;20375;-82
2023/08/25 10:16:47;;;;;;;1.13;0.50;;;;;;;34.41;35.10;100979.75;5036856;28;20374;-83
2023/08/25 10:19:14;;;;;;;0.75;0.40;;;;;;;34.29;35.42;100974.06;5037009;28;20829;-83
2023/08/25 10:21:44;;;;;;;0.90;0.50;;;;;;;34.42;35.08;100975.03;5037990;28;20413;-83
2023/08/25 10:24:10;;;;;;;0.80;0.50;;;;;;;34.41;35.44;100976.97;5034198;28;20478;-81
2023/08/25 10:26:37;;;;;;;0.60;0.40;;;;;;;34.51;35.10;100975.81;5036585;28;20386;-84
2023/08/25 10:29:03;;;;;;;0.80;0.45;;;;;;;34.58;35.33;100972.59;5035787;28;20906;-83
2023/08/25 10:31:30;;;;;;;0.73;0.50;;;;;;;34.62;35.14;100965.28;5041152;28;20378;-83
2023/08/25 10:33:56;;;;;;;0.93;0.40;;;;;;;34.70;35.24;100971.94;5038729;28;20382;-83
2023/08/25 10:36:23;;;;;;;0.82;0.40;;;;;;;34.75;34.64;100975.31;5036167;28;20374;-83
2023/08/25 10:38:54;;;;;;;0.55;0.40;;;;;;;34.46;33.99;100976.00;5035016;28;20386;-82
2023/08/25 10:41:21;;;;;;;0.90;0.50;;;;;;;34.34;34.07;100965.66;5034766;28;20389;-84
2023/08/25 10:43:53;;;;;;;0.90;0.50;;;;;;;34.55;33.71;100967.72;5035673;28;20381;-83
2023/08/25 10:46:20;;;;;;;1.05;0.52;;;;;;;34.44;33.67;100956.25;5039183;28;21166;-82
2023/08/25 10:49:06;;;;;;;0.93;0.50;;;;;;;34.65;33.75;100964.63;5046803;28;20439;-84
2023/08/25 10:51:33;;;;;;;1.15;0.60;;;;;;;34.69;33.23;100951.84;5034293;28;20402;-82
2023/08/25 10:53:59;;;;;;;0.77;0.50;;;;;;;34.77;33.15;100947.44;5030141;28;20378;-82
2023/08/25 10:56:26;;;;;;;0.80;0.50;;;;;;;34.83;33.08;100949.72;5034363;28;20382;-83
2023/08/25 10:59:10;;;;;;;1.23;0.40;;;;;;;34.88;32.86;100937.72;5031927;28;20409;-84
2023/08/25 11:01:38;;;;;;;1.15;0.45;;;;;;;34.98;33.10;100926.31;5034857;28;20901;-82
2023/08/25 11:04:12;;;;;;;1.13;0.45;;;;;;;35.21;32.83;100940.66;5039039;28;20414;-82
2023/08/25 11:06:46;;;;;;;0.52;0.40;;;;;;;34.82;32.82;100931.56;5036225;28;20497;-82
2023/08/25 11:09:17;;;;;;;0.85;0.38;;;;;;;35.12;32.52;100928.84;5036625;28;20453;-82
2023/08/25 11:11:44;;;;;;;0.45;0.40;;;;;;;35.22;32.72;100923.00;5037042;28;20397;-82
2023/08/25 11:14:11;;;;;;;1.20;0.60;;;;;;;35.27;33.38;100934.97;5017174;28;20409;-82
2023/08/25 11:16:40;;;;;;;1.00;0.50;;;;;;;34.97;33.22;100945.91;5035095;28;20417;-83
2023/08/25 11:19:10;;;;;;;0.80;0.55;;;;;;;35.02;33.73;100927.28;5034836;28;20417;-82
2023/08/25 11:21:37;;;;;;;1.30;0.60;;;;;;;34.97;33.76;100921.13;5034322;28;20397;-82
2023/08/25 11:24:02;;;;;;;0.80;0.40;;;;;;;35.07;33.46;100914.47;5034212;28;20394;-81